This is the latest recevied weather packets stored in our database for station/object N7AWM. If no packets are shown the sender has not sent any weather packets the latest 1 day(s).
| Time | Temp. | Humidity | Pressure | Rain* | Wind** | Luminosity | Snow |
|---|---|---|---|---|---|---|---|
| 1777995598 | 20.56° C | 50% | 1007 hPa | 0 mm | 0 m/s | - | - |
| 1777994758 | 18.89° C | 53% | 1006.9 hPa | 0 mm | 0.45 m/s, 139° | - | - |
| 1777993918 | 18.89° C | 52% | 1006.9 hPa | 0 mm | 0.45 m/s, 94° | - | - |
| 1777993079 | 18.33° C | 50% | 1006.7 hPa | 0 mm | 0.45 m/s, 142° | - | - |
| 1777992239 | 17.78° C | 53% | 1006.5 hPa | 0 mm | 0.45 m/s, 123° | - | - |
| 1777991399 | 17.22° C | 58% | 1006.3 hPa | 0 mm | 0 m/s | - | - |
| 1777990559 | 18.33° C | 54% | 1006.3 hPa | 0 mm | 0 m/s | - | - |
| 1777989719 | 17.22° C | 52% | 1006.2 hPa | 0 mm | 0 m/s | - | - |
| 1777988879 | 16.67° C | 50% | 1006.1 hPa | 0 mm | 0 m/s | - | - |
| 1777988039 | 16.11° C | 53% | 1006 hPa | 0 mm | 0 m/s | - | - |
| 1777987199 | 15.56° C | 52% | 1005.9 hPa | 0 mm | 0 m/s | - | - |
| 1777986359 | 16.11° C | 52% | 1005.8 hPa | 0 mm | 0 m/s | - | - |
| 1777985519 | 16.11° C | 51% | 1005.6 hPa | 0 mm | 0.45 m/s, 134° | - | - |
| 1777984679 | 16.67° C | 49% | 1005.4 hPa | 0 mm | 0 m/s | - | - |
| 1777983839 | 17.22° C | 47% | 1005.2 hPa | 0 mm | 0.45 m/s, 146° | - | - |
| 1777982999 | 18.33° C | 43% | 1005 hPa | 0 mm | 0.45 m/s, 169° | - | - |
| 1777982159 | 19.44° C | 40% | 1004.7 hPa | 0 mm | 2.24 m/s, 333° | - | - |
| 1777981319 | 20° C | 39% | 1004.6 hPa | 0 mm | 3.58 m/s, 349° | - | - |
| 1777980480 | 20° C | 40% | 1004.6 hPa | 0 mm | 4.47 m/s, 346° | - | - |
| 1777979643 | 20° C | 39% | 1004.5 hPa | 0 mm | 4.92 m/s, 353° | - | - |
| 1777978800 | 20° C | 38% | 1004.3 hPa | 0 mm | 5.36 m/s, 356° | - | - |
| 1777977960 | 20.56° C | 38% | 1004.1 hPa | 0 mm | 5.81 m/s, 347° | - | - |
| 1777977120 | 20.56° C | 38% | 1004.1 hPa | 0 mm | 5.81 m/s, 351° | - | - |
| 1777976280 | 20.56° C | 38% | 1004 hPa | 0 mm | 4.92 m/s, 356° | - | - |
| 1777975440 | 21.11° C | 38% | 1003.9 hPa | 0 mm | 5.36 m/s, 350° | - | - |
* Rain latest hour (hover to see other rain measurements)
** Current wind speed in m/s (hover to see current wind gust speed)